createdAt,value
2018-11-28T00:00:30.631Z,100.00
2018-11-28T00:02:59.689Z,100.00
2018-11-28T00:05:28.766Z,100.00
2018-11-28T00:07:57.838Z,100.00
2018-11-28T00:10:26.906Z,100.00
2018-11-28T00:13:07.722Z,100.00
2018-11-28T00:15:36.755Z,100.00
2018-11-28T00:20:41.506Z,100.00
2018-11-28T00:23:10.577Z,100.00
2018-11-28T00:25:39.640Z,100.00
2018-11-28T00:28:08.720Z,100.00
2018-11-28T00:30:37.780Z,100.00
2018-11-28T00:33:14.874Z,100.00
2018-11-28T00:35:43.943Z,100.00
2018-11-28T00:38:13.131Z,100.00
2018-11-28T00:40:42.184Z,100.00
2018-11-28T00:43:11.244Z,100.00
2018-11-28T00:45:40.407Z,100.00
2018-11-28T00:48:09.471Z,100.00
2018-11-28T00:50:38.526Z,100.00
2018-11-28T00:53:07.595Z,100.00
2018-11-28T00:55:36.656Z,100.00
2018-11-28T00:58:05.719Z,100.00
2018-11-28T01:03:10.531Z,100.00
2018-11-28T01:05:40.556Z,100.00
2018-11-28T01:08:10.567Z,100.00
2018-11-28T01:10:39.655Z,100.00
2018-11-28T01:13:08.740Z,100.00
2018-11-28T01:15:37.819Z,100.00
2018-11-28T01:18:06.871Z,100.00
2018-11-28T01:20:35.931Z,100.00
2018-11-28T01:23:04.995Z,100.00
2018-11-28T01:25:34.051Z,100.00
2018-11-28T01:28:03.122Z,100.00
2018-11-28T01:30:32.192Z,100.00
2018-11-28T01:33:02.294Z,100.00
2018-11-28T01:35:31.375Z,100.00
2018-11-28T01:40:38.325Z,100.00
2018-11-28T01:43:07.394Z,100.00
2018-11-28T01:45:36.471Z,100.00
2018-11-28T01:48:05.651Z,100.00
2018-11-28T01:50:34.689Z,100.00
2018-11-28T01:53:03.755Z,100.00
2018-11-28T01:55:32.843Z,100.00
2018-11-28T01:58:01.889Z,100.00
2018-11-28T02:00:30.964Z,100.00
2018-11-28T02:05:35.739Z,100.00
2018-11-28T02:08:05.728Z,100.00
2018-11-28T02:10:35.768Z,100.00
2018-11-28T02:13:04.829Z,100.00
2018-11-28T02:15:33.912Z,100.00
2018-11-28T02:18:02.991Z,100.00
2018-11-28T02:20:36.543Z,100.00
2018-11-28T02:23:05.588Z,100.00
2018-11-28T02:25:34.710Z,100.00
2018-11-28T02:28:03.774Z,100.00
2018-11-28T02:30:33.775Z,100.00
2018-11-28T02:33:02.835Z,100.00
2018-11-28T02:35:31.968Z,100.00
2018-11-28T02:38:01.049Z,100.00
2018-11-28T02:40:30.153Z,100.00
2018-11-28T02:45:37.050Z,100.00
2018-11-28T02:48:06.124Z,100.00
2018-11-28T02:50:35.227Z,100.00
2018-11-28T02:53:04.302Z,100.00
2018-11-28T02:55:33.447Z,100.00
2018-11-28T02:58:02.545Z,100.00
2018-11-28T03:00:31.619Z,100.00
2018-11-28T03:03:09.827Z,100.00
2018-11-28T03:05:38.881Z,100.00
2018-11-28T03:08:07.954Z,100.00
2018-11-28T03:14:09.129Z,100.00
2018-11-28T03:16:38.230Z,100.00
2018-11-28T03:19:07.289Z,100.00
2018-11-28T03:21:36.637Z,100.00
2018-11-28T03:24:05.724Z,100.00
2018-11-28T03:26:35.726Z,100.00
2018-11-28T03:31:41.211Z,100.00
2018-11-28T03:34:10.531Z,100.00
2018-11-28T03:36:39.610Z,100.00
2018-11-28T03:39:08.779Z,100.00
2018-11-28T03:41:37.828Z,100.00
2018-11-28T03:44:06.908Z,100.00
2018-11-28T03:46:35.967Z,100.00
2018-11-28T03:51:41.686Z,100.00
2018-11-28T03:54:10.764Z,100.00
2018-11-28T03:56:40.795Z,100.00
2018-11-28T03:59:09.876Z,100.00
2018-11-28T04:01:38.926Z,100.00
2018-11-28T04:04:08.011Z,100.00
2018-11-28T04:06:37.127Z,100.00
2018-11-28T04:09:06.216Z,100.00
2018-11-28T04:11:35.290Z,100.00
2018-11-28T04:14:04.381Z,100.00
2018-11-28T04:16:34.419Z,100.00
2018-11-28T04:19:03.500Z,100.00
2018-11-28T04:21:32.559Z,100.00
2018-11-28T04:24:01.681Z,100.00
2018-11-28T04:26:31.633Z,100.00
2018-11-28T04:29:02.884Z,100.00
2018-11-28T04:34:07.653Z,100.00
2018-11-28T04:36:36.716Z,100.00
2018-11-28T04:39:05.785Z,100.00
2018-11-28T04:41:34.852Z,100.00
2018-11-28T04:46:39.683Z,100.00
2018-11-28T04:49:08.859Z,100.00
2018-11-28T04:51:37.924Z,100.00
2018-11-28T04:54:07.088Z,100.00
2018-11-28T04:56:36.156Z,100.00
2018-11-28T04:59:07.040Z,100.00
2018-11-28T05:01:36.120Z,100.00
2018-11-28T05:04:06.140Z,100.00
2018-11-28T05:06:35.203Z,100.00
2018-11-28T05:09:04.267Z,100.00
2018-11-28T05:11:33.389Z,100.00
2018-11-28T05:14:03.367Z,100.00
2018-11-28T05:16:32.547Z,100.00
2018-11-28T05:19:01.627Z,100.00
2018-11-28T05:24:06.440Z,100.00
2018-11-28T05:26:35.700Z,100.00
2018-11-28T05:29:04.796Z,100.00
2018-11-28T05:31:34.933Z,100.00
2018-11-28T05:34:04.992Z,100.00
2018-11-28T05:36:34.064Z,100.00
2018-11-28T05:39:03.359Z,100.00
2018-11-28T05:41:32.433Z,100.00
2018-11-28T05:44:01.488Z,100.00
2018-11-28T05:46:30.735Z,100.00
2018-11-28T05:48:59.846Z,100.00
2018-11-28T05:51:29.023Z,100.00
2018-11-28T05:54:02.813Z,100.00
2018-11-28T05:56:43.729Z,100.00
2018-11-28T05:59:27.423Z,100.00
2018-11-28T06:02:05.534Z,100.00
2018-11-28T06:04:35.054Z,100.00
2018-11-28T06:07:04.168Z,100.00
2018-11-28T06:09:34.286Z,100.00
2018-11-28T06:14:50.205Z,100.00
2018-11-28T06:17:19.259Z,100.00
2018-11-28T06:19:48.372Z,100.00
2018-11-28T06:24:53.417Z,100.00
2018-11-28T06:27:22.495Z,100.00
2018-11-28T06:29:51.591Z,100.00
2018-11-28T06:32:20.640Z,100.00
2018-11-28T06:34:49.711Z,100.00
2018-11-28T06:37:18.776Z,100.00
2018-11-28T06:42:23.542Z,100.00
2018-11-28T06:44:52.608Z,100.00
2018-11-28T06:47:21.670Z,100.00
2018-11-28T06:49:51.744Z,100.00
2018-11-28T06:52:20.808Z,100.00
2018-11-28T06:54:50.859Z,100.00
2018-11-28T07:00:01.855Z,100.00
2018-11-28T07:02:31.868Z,100.00
2018-11-28T07:05:00.928Z,100.00
2018-11-28T07:07:30.025Z,100.00
2018-11-28T07:09:59.095Z,100.00
2018-11-28T07:12:28.670Z,100.00
2018-11-28T07:14:57.760Z,100.00
2018-11-28T07:17:26.803Z,100.00
2018-11-28T07:22:31.539Z,100.00
2018-11-28T07:25:00.650Z,100.00
2018-11-28T07:27:30.626Z,100.00
2018-11-28T07:30:00.661Z,100.00
2018-11-28T07:32:29.771Z,100.00
2018-11-28T07:34:59.865Z,100.00
2018-11-28T07:37:28.918Z,100.00
2018-11-28T07:40:05.790Z,100.00
2018-11-28T07:42:34.848Z,100.00
2018-11-28T07:45:03.923Z,100.00
2018-11-28T07:47:33.023Z,100.00
2018-11-28T07:50:02.083Z,100.00
2018-11-28T07:52:32.095Z,100.00
2018-11-28T07:55:01.163Z,100.00
2018-11-28T07:57:30.407Z,100.00
2018-11-28T07:59:59.509Z,100.00
2018-11-28T08:02:29.838Z,100.00
2018-11-28T08:04:59.579Z,100.00
2018-11-28T08:10:05.425Z,100.00
2018-11-28T08:12:34.475Z,100.00
2018-11-28T08:15:03.541Z,100.00
2018-11-28T08:17:32.604Z,100.00
2018-11-28T08:20:01.669Z,100.00
2018-11-28T08:25:07.547Z,100.00
2018-11-28T08:27:36.383Z,100.00
2018-11-28T08:30:05.610Z,100.00
2018-11-28T08:32:34.687Z,100.00
2018-11-28T08:35:03.757Z,100.00
2018-11-28T08:37:32.810Z,100.00
2018-11-28T08:40:01.881Z,100.00
2018-11-28T08:42:30.946Z,100.00
2018-11-28T08:47:35.736Z,100.00
2018-11-28T08:50:04.832Z,100.00
2018-11-28T08:52:33.890Z,100.00
2018-11-28T08:55:03.015Z,100.00
2018-11-28T08:57:32.895Z,100.00
2018-11-28T09:00:01.982Z,100.00
2018-11-28T09:02:31.052Z,100.00
2018-11-28T09:07:36.816Z,100.00
2018-11-28T09:10:05.908Z,100.00
2018-11-28T09:12:35.293Z,100.00
2018-11-28T09:15:05.631Z,100.00
2018-11-28T09:17:34.693Z,100.00
2018-11-28T09:20:03.755Z,100.00
2018-11-28T09:22:32.814Z,100.00
2018-11-28T09:25:07.458Z,100.00
2018-11-28T09:27:36.512Z,100.00
2018-11-28T09:30:06.759Z,100.00
2018-11-28T09:32:35.823Z,100.00
2018-11-28T09:35:05.804Z,100.00
2018-11-28T09:37:34.855Z,100.00
2018-11-28T09:40:03.933Z,100.00
2018-11-28T09:42:33.009Z,100.00
2018-11-28T09:45:02.067Z,100.00
2018-11-28T09:50:06.888Z,100.00
2018-11-28T09:52:36.142Z,100.00
2018-11-28T09:57:40.811Z,100.00
2018-11-28T10:00:09.863Z,100.00
2018-11-28T10:02:38.907Z,100.00
2018-11-28T10:05:07.956Z,100.00
2018-11-28T10:07:43.242Z,100.00
2018-11-28T10:10:12.271Z,100.00
2018-11-28T10:15:17.012Z,100.00
2018-11-28T10:17:46.171Z,100.00
2018-11-28T10:20:18.263Z,100.00
2018-11-28T10:22:47.303Z,100.00
2018-11-28T10:25:16.354Z,100.00
2018-11-28T10:27:45.414Z,100.00
2018-11-28T10:32:50.257Z,100.00
2018-11-28T10:35:20.340Z,100.00
2018-11-28T10:37:49.392Z,100.00
2018-11-28T10:42:54.221Z,100.00
2018-11-28T10:45:23.573Z,100.00
2018-11-28T10:47:57.310Z,100.00
2018-11-28T10:50:28.292Z,100.00
2018-11-28T10:52:57.343Z,100.00
2018-11-28T10:55:27.327Z,100.00
2018-11-28T10:57:56.396Z,100.00
2018-11-28T11:00:26.361Z,100.00
2018-11-28T11:02:55.399Z,100.00
2018-11-28T11:13:11.547Z,100.00
2018-11-28T11:18:16.290Z,100.00
2018-11-28T11:20:45.361Z,100.00
2018-11-28T11:23:14.427Z,100.00
2018-11-28T11:25:43.477Z,100.00
2018-11-28T11:28:13.419Z,100.00
2018-11-28T11:30:43.611Z,100.00
2018-11-28T11:33:14.667Z,100.00
2018-11-28T11:35:44.666Z,100.00
2018-11-28T11:38:13.718Z,100.00
2018-11-28T11:40:42.777Z,100.00
2018-11-28T11:43:11.823Z,100.00
2018-11-28T11:45:40.867Z,100.00
2018-11-28T11:48:09.948Z,100.00
2018-11-28T11:50:39.032Z,100.00
2018-11-28T11:53:09.552Z,100.00
2018-11-28T11:58:04.172Z,100.00
2018-11-28T12:00:33.303Z,100.00
2018-11-28T12:03:03.059Z,99.56
2018-11-28T12:05:32.119Z,99.06
2018-11-28T12:08:02.121Z,98.95
2018-11-28T12:13:08.100Z,99.83
2018-11-28T12:15:38.978Z,99.92
2018-11-28T12:18:08.007Z,99.20
2018-11-28T12:20:38.002Z,100.00
2018-11-28T12:23:07.047Z,100.00
2018-11-28T12:25:37.095Z,100.00
2018-11-28T12:28:06.143Z,100.00
2018-11-28T12:30:35.273Z,100.00
2018-11-28T12:33:04.472Z,100.00
2018-11-28T12:35:33.772Z,100.00
2018-11-28T12:40:40.504Z,99.09
2018-11-28T12:43:09.566Z,98.02
2018-11-28T12:45:38.788Z,97.72
2018-11-28T12:48:07.809Z,98.77
2018-11-28T12:50:37.846Z,99.87
2018-11-28T12:53:07.068Z,100.00
2018-11-28T12:55:36.127Z,100.00
2018-11-28T12:58:05.177Z,100.00
2018-11-28T13:00:34.596Z,100.00
2018-11-28T13:03:03.619Z,100.00
2018-11-28T13:05:32.711Z,100.00
2018-11-28T13:08:01.725Z,100.00
2018-11-28T13:10:30.779Z,100.00
2018-11-28T13:12:59.832Z,100.00
2018-11-28T13:15:30.872Z,100.00
2018-11-28T13:17:59.912Z,100.00
2018-11-28T13:20:29.867Z,100.00
2018-11-28T13:22:59.019Z,100.00
2018-11-28T13:25:29.014Z,100.00
2018-11-28T13:27:58.396Z,100.00
2018-11-28T13:33:04.522Z,100.00
2018-11-28T13:35:34.786Z,100.00
2018-11-28T13:38:03.903Z,100.00
2018-11-28T13:40:33.000Z,100.00
2018-11-28T13:45:38.784Z,100.00
2018-11-28T13:48:08.069Z,100.00
2018-11-28T13:50:37.177Z,100.00
2018-11-28T13:53:06.296Z,100.00
2018-11-28T13:55:38.495Z,100.00
2018-11-28T13:58:04.496Z,100.00
2018-11-28T14:00:35.340Z,100.00
2018-11-28T14:03:07.807Z,100.00
2018-11-28T14:05:36.921Z,100.00
2018-11-28T14:08:05.981Z,100.00
2018-11-28T14:10:35.052Z,100.00
2018-11-28T14:13:04.154Z,100.00
2018-11-28T14:15:33.187Z,100.00
2018-11-28T14:18:03.219Z,100.00
2018-11-28T14:20:32.315Z,100.00
2018-11-28T14:23:09.892Z,100.00
2018-11-28T14:25:38.923Z,100.00
2018-11-28T14:28:07.963Z,100.00
2018-11-28T14:30:37.044Z,100.00
2018-11-28T14:33:06.107Z,100.00
2018-11-28T14:35:35.152Z,100.00
2018-11-28T14:38:04.218Z,100.00
2018-11-28T14:40:33.277Z,100.00
2018-11-28T14:43:02.332Z,100.00
2018-11-28T14:45:31.468Z,100.00
2018-11-28T14:48:00.507Z,100.00
2018-11-28T14:50:29.561Z,100.00
2018-11-28T14:52:58.634Z,100.00
2018-11-28T14:55:31.100Z,100.00
2018-11-28T14:58:00.458Z,100.00
2018-11-28T15:00:29.511Z,100.00
2018-11-28T15:02:58.547Z,100.00
2018-11-28T15:05:34.539Z,100.00
2018-11-28T15:08:03.575Z,100.00
2018-11-28T15:10:32.730Z,100.00
2018-11-28T15:13:01.766Z,100.00
2018-11-28T15:15:30.862Z,100.00
2018-11-28T15:17:59.891Z,100.00
2018-11-28T15:20:28.984Z,100.00
2018-11-28T15:23:00.056Z,100.00
2018-11-28T15:25:29.099Z,100.00
2018-11-28T15:27:58.171Z,100.00
2018-11-28T15:30:27.215Z,100.00
2018-11-28T15:32:56.807Z,100.00
2018-11-28T15:35:25.848Z,100.00
2018-11-28T15:37:54.894Z,100.00
2018-11-28T15:40:23.941Z,100.00
2018-11-28T15:42:52.995Z,100.00
2018-11-28T15:45:22.062Z,100.00
2018-11-28T15:47:51.305Z,100.00
2018-11-28T15:50:21.551Z,100.00
2018-11-28T15:52:57.709Z,100.00
2018-11-28T15:55:26.777Z,100.00
2018-11-28T15:57:55.824Z,100.00
2018-11-28T16:03:00.772Z,100.00
2018-11-28T16:05:29.730Z,100.00
2018-11-28T16:07:58.761Z,100.00
2018-11-28T16:13:05.673Z,100.00
2018-11-28T16:15:35.643Z,100.00
2018-11-28T16:18:05.667Z,100.00
2018-11-28T16:20:34.715Z,100.00
2018-11-28T16:23:04.843Z,100.00
2018-11-28T16:25:32.835Z,100.00
2018-11-28T16:28:01.891Z,100.00
2018-11-28T16:30:32.438Z,100.00
2018-11-28T16:33:01.556Z,100.00
2018-11-28T16:35:30.759Z,100.00
2018-11-28T16:37:59.808Z,100.00
2018-11-28T16:40:28.854Z,100.00
2018-11-28T16:42:58.023Z,100.00
2018-11-28T16:45:27.087Z,100.00
2018-11-28T16:47:56.151Z,100.00
2018-11-28T16:50:25.228Z,100.00
2018-11-28T16:52:54.264Z,100.00
2018-11-28T16:55:23.316Z,100.00
2018-11-28T16:57:52.392Z,100.00
2018-11-28T17:00:21.432Z,100.00
2018-11-28T17:02:50.488Z,100.00
2018-11-28T17:05:19.542Z,100.00
2018-11-28T17:07:48.605Z,100.00
2018-11-28T17:10:17.662Z,100.00
2018-11-28T17:12:46.728Z,100.00
2018-11-28T17:15:15.769Z,100.00
2018-11-28T17:17:44.840Z,100.00
2018-11-28T17:20:13.900Z,100.00
2018-11-28T17:22:42.946Z,100.00
2018-11-28T17:25:11.997Z,100.00
2018-11-28T17:27:41.049Z,100.00
2018-11-28T17:30:10.121Z,100.00
2018-11-28T17:32:39.164Z,100.00
2018-11-28T17:35:08.248Z,100.00
2018-11-28T17:37:50.865Z,100.00
2018-11-28T17:40:20.654Z,100.00
2018-11-28T17:42:49.750Z,100.00
2018-11-28T17:45:18.763Z,100.00
2018-11-28T17:47:47.815Z,100.00
2018-11-28T17:50:18.291Z,100.00
2018-11-28T17:52:47.472Z,100.00
2018-11-28T17:55:16.567Z,100.00
2018-11-28T17:57:52.051Z,100.00
2018-11-28T18:00:22.744Z,100.00
2018-11-28T18:02:51.912Z,100.00
2018-11-28T18:05:21.024Z,100.00
2018-11-28T18:07:50.129Z,100.00
2018-11-28T18:10:20.797Z,100.00
2018-11-28T18:12:49.911Z,100.00
2018-11-28T18:15:19.071Z,100.00
2018-11-28T18:17:48.344Z,100.00
2018-11-28T18:22:53.164Z,100.00
2018-11-28T18:25:22.387Z,100.00
2018-11-28T18:27:51.429Z,100.00
2018-11-28T18:30:20.841Z,100.00
2018-11-28T18:32:49.870Z,100.00
2018-11-28T18:35:18.955Z,100.00
2018-11-28T18:37:48.031Z,100.00
2018-11-28T18:40:21.893Z,100.00
2018-11-28T18:42:50.924Z,100.00
2018-11-28T18:45:19.988Z,100.00
2018-11-28T18:47:49.064Z,100.00
2018-11-28T18:50:18.119Z,100.00
2018-11-28T18:52:47.178Z,100.00
2018-11-28T18:55:16.773Z,100.00
2018-11-28T18:57:45.281Z,100.00
2018-11-28T19:00:15.348Z,100.00
2018-11-28T19:02:44.423Z,100.00
2018-11-28T19:05:13.585Z,100.00
2018-11-28T19:07:42.761Z,100.00
2018-11-28T19:10:13.887Z,100.00
2018-11-28T19:12:42.945Z,100.00
2018-11-28T19:17:47.873Z,100.00
2018-11-28T19:20:16.916Z,100.00
2018-11-28T19:22:48.127Z,100.00
2018-11-28T19:25:17.163Z,100.00
2018-11-28T19:27:46.204Z,100.00
2018-11-28T19:32:51.012Z,100.00
2018-11-28T19:35:20.114Z,100.00
2018-11-28T19:37:49.184Z,100.00
2018-11-28T19:40:18.310Z,100.00
2018-11-28T19:42:47.656Z,100.00
2018-11-28T19:45:16.795Z,100.00
2018-11-28T19:47:46.282Z,100.00
2018-11-28T19:50:15.584Z,100.00
2018-11-28T19:52:44.896Z,100.00
2018-11-28T19:55:14.006Z,100.00
2018-11-28T19:57:43.056Z,100.00
2018-11-28T20:00:12.091Z,100.00
2018-11-28T20:02:41.131Z,100.00
2018-11-28T20:05:12.053Z,100.00
2018-11-28T20:07:41.081Z,100.00
2018-11-28T20:10:10.160Z,100.00
2018-11-28T20:15:15.653Z,100.00
2018-11-28T20:17:45.221Z,100.00
2018-11-28T20:20:14.416Z,100.00
2018-11-28T20:22:43.733Z,100.00
2018-11-28T20:25:12.854Z,100.00
2018-11-28T20:27:41.947Z,100.00
2018-11-28T20:32:47.935Z,100.00
2018-11-28T20:35:17.089Z,100.00
2018-11-28T20:37:49.129Z,100.00
2018-11-28T20:40:18.394Z,100.00
2018-11-28T20:42:47.603Z,100.00
2018-11-28T20:45:16.983Z,100.00
2018-11-28T20:47:46.661Z,100.00
2018-11-28T20:50:16.807Z,100.00
2018-11-28T20:52:46.126Z,100.00
2018-11-28T20:55:21.085Z,100.00
2018-11-28T20:57:50.571Z,100.00
2018-11-28T21:00:19.784Z,100.00
2018-11-28T21:02:50.355Z,100.00
2018-11-28T21:05:19.622Z,100.00
2018-11-28T21:10:25.190Z,100.00
2018-11-28T21:12:55.262Z,100.00
2018-11-28T21:15:25.022Z,100.00
2018-11-28T21:17:54.153Z,100.00
2018-11-28T21:20:23.909Z,100.00
2018-11-28T21:22:53.222Z,100.00
2018-11-28T21:25:22.430Z,100.00
2018-11-28T21:27:52.603Z,100.00
2018-11-28T21:32:57.505Z,100.00
2018-11-28T21:35:28.305Z,100.00
2018-11-28T21:37:58.525Z,100.00
2018-11-28T21:40:28.378Z,100.00
2018-11-28T21:42:58.431Z,100.00
2018-11-28T21:45:27.685Z,100.00
2018-11-28T21:47:59.758Z,100.00
2018-11-28T21:50:29.068Z,100.00
2018-11-28T21:53:03.893Z,100.00
2018-11-28T21:55:36.400Z,100.00
2018-11-28T21:58:05.955Z,100.00
2018-11-28T22:00:35.087Z,100.00
2018-11-28T22:03:04.146Z,100.00
2018-11-28T22:05:33.235Z,100.00
2018-11-28T22:08:02.289Z,100.00
2018-11-28T22:10:31.543Z,100.00
2018-11-28T22:13:01.753Z,100.00
2018-11-28T22:15:30.978Z,100.00
2018-11-28T22:18:00.177Z,100.00
2018-11-28T22:20:29.563Z,100.00
2018-11-28T22:22:58.682Z,100.00
2018-11-28T22:25:27.804Z,100.00
2018-11-28T22:27:56.891Z,100.00
2018-11-28T22:30:25.970Z,100.00
2018-11-28T22:33:01.546Z,100.00
2018-11-28T22:35:30.952Z,100.00
2018-11-28T22:40:38.651Z,100.00
2018-11-28T22:43:07.720Z,100.00
2018-11-28T22:45:36.824Z,100.00
2018-11-28T22:48:05.897Z,100.00
2018-11-28T22:50:34.947Z,100.00
2018-11-28T22:53:04.045Z,100.00
2018-11-28T22:55:33.251Z,100.00
2018-11-28T22:58:02.308Z,100.00
2018-11-28T23:00:31.395Z,100.00
2018-11-28T23:03:00.539Z,100.00
2018-11-28T23:08:05.321Z,100.00
2018-11-28T23:10:34.379Z,100.00
2018-11-28T23:15:39.173Z,100.00
2018-11-28T23:18:08.340Z,100.00
2018-11-28T23:20:52.735Z,100.00
2018-11-28T23:23:21.819Z,100.00
2018-11-28T23:25:51.806Z,100.00
2018-11-28T23:28:21.049Z,100.00
2018-11-28T23:30:50.135Z,100.00
2018-11-28T23:33:19.205Z,100.00
2018-11-28T23:35:48.277Z,100.00
2018-11-28T23:38:17.427Z,100.00
2018-11-28T23:40:46.516Z,100.00
2018-11-28T23:43:15.599Z,100.00
2018-11-28T23:45:44.672Z,100.00
2018-11-28T23:48:13.790Z,100.00
2018-11-28T23:50:42.835Z,100.00
2018-11-28T23:53:11.968Z,100.00
2018-11-28T23:55:41.057Z,100.00
